Latest Weather Observations for Parafield

IDS60801

Issued at 1:01 am CST Tuesday 22 August 2017 (issued every 30 minutes, with the page automatically refreshed every 10 minutes)

About weather observations | Map of weather stations | Latest weather observations for SA | Other Formats
Station Details ID: 023013 Name: PARAFIELD AIRPORT Lat: -34.80 Lon: 138.63 Height: 9.5 m
Data from the previous 72 hours. | See also: Recent months at Parafield
Date/Time
CST
Temp
°C
App
Temp
°C
Dew
Point
°C
Rel
Hum
%
Delta-T
°C
Wind Press
QNH
hPa
Press
MSL
hPa
Rain since
9am
mm
Dir  Spd
km/h
Gust
km/h
Spd
kts
Gust
kts
22/01:00am 10.1 8.4 9.8 98 0.2 NE 9 11 5 6 1019.1 1019.2 1.2
22/12:59am 10.1 8.4 9.8 98 0.2 NE 9 11 5 6 1019.1 1019.2 1.2
22/12:33am 10.2 8.9 9.3 94 0.4 SE 6 7 3 4 1019.3 1019.4 0.6
22/12:30am 10.2 8.9 9.3 94 0.4 SE 6 7 3 4 1019.3 1019.4 0.4
22/12:00am 10.2 7.5 8.8 91 0.7 NNE 13 15 7 8 1019.1 1019.2 0.2
 
Date/Time
CST
Temp
°C
App
Temp
°C
Dew
Point
°C
Rel
Hum
%
Delta-T
°C
Wind Press
QNH
hPa
Press
MSL
hPa
Rain since
9am
mm
Dir  Spd
km/h
Gust
km/h
Spd
kts
Gust
kts
21/11:30pm 10.0 8.5 9.1 94 0.4 NE 7 9 4 5 1019.0 1019.1 0.2
21/11:16pm 9.8 7.9 8.9 94 0.4 NNE 9 9 5 5 1019.0 1019.1 0.2
21/11:00pm 9.7 7.8 8.9 95 0.4 NE 9 11 5 6 1018.8 1018.9 0.2
21/10:30pm 9.5 7.6 8.9 96 0.3 E 9 9 5 5 1018.8 1018.9 0.2
21/10:00pm 9.1 8.8 8.6 97 0.2 CALM 0 0 0 0 1018.7 1018.8 0.2
21/09:30pm 8.1 7.5 7.3 95 0.4 CALM 0 0 0 0 1018.3 1018.4 0.2
21/09:00pm 8.1 7.5 7.5 96 0.3 CALM 0 0 0 0 1017.8 1017.9 0.2
21/08:30pm 8.5 7.9 7.6 94 0.4 CALM 0 0 0 0 1017.5 1017.6 0.2
21/08:00pm 9.3 7.3 6.9 85 1.1 E 7 9 4 5 1017.0 1017.1 0.2
21/07:30pm 9.9 7.8 6.8 81 1.5 S 7 9 4 5 1017.0 1017.1 0.2
21/07:00pm 10.8 7.7 7.1 78 1.8 SSW 13 17 7 9 1016.5 1016.5 0.2
21/06:30pm 12.2 9.3 8.3 77 1.9 SSW 13 19 7 10 1016.0 1016.0 0.2
21/06:00pm 12.2 8.8 7.7 74 2.2 S 15 20 8 11 1015.2 1015.2 0.2
21/05:30pm 12.2 7.8 7.5 73 2.3 SSW 20 28 11 15 1014.6 1014.6 0.2
21/05:00pm 13.2 8.7 8.5 73 2.3 SSW 22 30 12 16 1013.7 1013.7 0.2
21/04:30pm 13.7 9.9 9.9 78 2.0 SSW 20 28 11 15 1013.0 1013.0 0.2
21/04:09pm 13.6 9.0 9.8 78 2.0 SSW 24 32 13 17 1012.7 1012.7 0.2
21/04:00pm 13.6 9.2 10.4 81 1.7 SSW 24 32 13 17 1012.5 1012.5 0.2
21/03:50pm 13.6 8.4 10.4 81 1.7 SW 28 37 15 20 1012.4 1012.4 0.2
21/03:42pm 13.7 8.4 9.9 78 2.0 SW 28 35 15 19 1012.3 1012.3 0.2
21/03:30pm 13.8 10.1 10.0 78 2.0 SSW 20 30 11 16 1012.1 1012.1 0.2
21/03:00pm 13.9 10.0 10.9 82 1.6 SSW 22 32 12 17 1011.5 1011.5 0.2
21/02:30pm 14.2 11.4 11.4 83 1.5 SSW 17 24 9 13 1011.0 1011.0 0.2
21/02:00pm 13.4 10.4 12.0 91 0.8 WSW 19 22 10 12 1010.6 1010.6 0.2
21/01:30pm 14.3 12.4 11.8 85 1.3 WSW 13 15 7 8 1010.0 1010.0 0.2
21/01:00pm 14.2 12.1 11.2 82 1.6 WSW 13 17 7 9 1009.7 1009.7 0.2
21/12:30pm 13.9 13.4 10.9 82 1.6 SSW 4 7 2 4 1009.6 1009.6 0.2
21/12:00pm 13.2 13.0 10.4 83 1.5 W 2 7 1 4 1009.8 1009.8 0.2
21/11:30am 12.4 10.4 10.1 86 1.2 NNE 11 17 6 9 1009.4 1009.4 0.2
21/11:00am 12.3 10.8 10.7 90 0.8 NNE 9 11 5 6 1009.4 1009.4 0.2
21/10:30am 10.9 9.0 10.4 97 0.3 NE 11 15 6 8 1009.2 1009.2 0.2
21/10:00am 10.7 8.4 10.5 99 0.1 NE 13 15 7 8 1009.0 1009.0 0.2
21/09:55am 10.1 7.6 9.8 98 0.2 NE 13 15 7 8 1009.0 1009.0 0.2
21/09:30am 9.6 7.3 9.1 97 0.2 NE 11 15 6 8 1009.0 1009.0 0.2
21/09:00am 9.4 6.6 8.6 95 0.4 NNE 13 17 7 9 1008.8 1008.8 13.0
21/08:44am 9.2 5.9 8.1 93 0.5 NNE 15 20 8 11 1008.6 1008.6 12.8
21/08:40am 9.2 5.5 7.8 91 0.7 NNE 17 24 9 13 1008.6 1008.6 12.8
21/08:30am 9.2 5.1 7.8 91 0.7 NE 19 26 10 14 1008.5 1008.5 12.6
21/08:07am 8.7 5.0 7.9 95 0.4 NE 17 24 9 13 1008.2 1008.2 12.6
21/08:00am 8.5 4.3 7.6 94 0.4 NE 19 24 10 13 1008.2 1008.2 12.6
21/07:51am 8.6 4.1 6.9 89 0.8 NNE 20 28 11 15 1008.2 1008.2 12.6
21/07:30am 9.1 4.4 6.0 81 1.4 NNE 20 26 11 14 1007.9 1007.9 12.4
21/07:00am 9.2 4.4 5.4 77 1.7 NNE 20 28 11 15 1007.5 1007.5 12.4
21/06:30am 9.2 3.6 5.4 77 1.7 NNE 24 30 13 16 1007.2 1007.2 12.4
21/06:00am 8.4 2.9 5.7 83 1.2 NE 24 33 13 18 1007.2 1007.2 12.4
21/05:30am 8.3 2.7 5.4 82 1.3 NNE 24 32 13 17 1007.5 1007.5 12.0
21/05:00am 8.4 3.5 5.3 81 1.4 NE 20 26 11 14 1007.8 1007.8 11.8
21/04:30am 8.6 4.3 5.2 79 1.5 NNE 17 22 9 12 1007.8 1007.8 11.0
21/04:00am 9.3 4.2 4.3 71 2.2 NNE 20 28 11 15 1007.9 1007.9 10.0
21/03:30am 9.9 4.7 3.6 65 2.8 N 20 28 11 15 1008.0 1008.0 9.6
21/03:00am 10.8 4.2 2.1 55 3.7 NNE 26 35 14 19 1007.6 1007.6 9.6
21/02:30am 10.7 3.0 2.3 56 3.6 NNE 32 43 17 23 1007.8 1007.8 9.6
21/02:00am 10.1 3.3 2.9 61 3.1 NNE 28 41 15 22 1008.5 1008.5 9.6
21/01:30am 9.8 3.0 3.3 64 2.8 NNE 28 37 15 20 1009.1 1009.1 9.6
21/01:00am 10.3 3.1 3.1 61 3.1 NNE 30 39 16 21 1009.6 1009.6 9.6
21/12:30am 10.3 3.3 4.0 65 2.8 NNE 30 41 16 22 1010.3 1010.3 9.6
21/12:00am 9.8 4.0 4.4 69 2.4 NE 24 32 13 17 1010.9 1010.9 9.6
 
Date/Time
CST
Temp
°C
App
Temp
°C
Dew
Point
°C
Rel
Hum
%
Delta-T
°C
Wind Press
QNH
hPa
Press
MSL
hPa
Rain since
9am
mm
Dir  Spd
km/h
Gust
km/h
Spd
kts
Gust
kts
20/11:30pm 9.7 4.7 4.5 70 2.3 NE 20 26 11 14 1011.5 1011.5 9.6
20/11:00pm 9.9 3.4 4.5 69 2.4 NNE 28 37 15 20 1011.8 1011.8 9.6
20/10:30pm 10.0 3.5 4.6 69 2.4 NNE 28 41 15 22 1012.3 1012.3 9.6
20/10:00pm 9.5 4.4 5.9 78 1.7 NNE 22 30 12 16 1013.1 1013.1 9.6
20/09:30pm 9.2 3.8 6.5 83 1.3 NNE 24 33 13 18 1014.0 1014.0 9.6
20/09:00pm 9.5 3.7 6.4 81 1.4 NNE 26 35 14 19 1014.3 1014.3 9.2
20/08:30pm 9.5 3.3 6.2 80 1.5 NNE 28 35 15 19 1014.5 1014.5 9.2
20/08:00pm 8.9 1.9 6.2 83 1.2 NE 32 41 17 22 1014.1 1014.1 9.2
20/07:30pm 8.6 2.5 6.7 88 0.9 NE 28 39 15 21 1014.3 1014.3 9.2
20/07:00pm 8.4 3.1 7.0 91 0.7 NE 24 39 13 21 1014.9 1014.9 9.2
20/06:34pm 8.5 3.3 7.3 92 0.6 ENE 24 33 13 18 1014.8 1014.8 8.8
20/06:30pm 8.6 4.3 7.7 94 0.4 NE 20 26 11 14 1015.1 1015.1 8.6
20/06:16pm 8.9 4.9 8.1 95 0.4 NE 19 24 10 13 1016.1 1016.1 7.4
20/06:00pm 9.1 5.6 8.8 98 0.1 ENE 17 19 9 10 1015.9 1015.9 5.4
20/05:30pm 9.2 5.9 8.1 93 0.5 NW 15 20 8 11 1016.1 1016.1 3.8
20/05:00pm 10.1 7.0 7.2 82 1.4 WNW 13 22 7 12 1016.2 1016.2 2.0
20/04:30pm 11.0 8.1 6.4 73 2.2 N 11 15 6 8 1014.8 1014.8 0.6
20/04:00pm 12.3 6.0 3.5 55 3.9 NNE 26 39 14 21 1014.6 1014.6 0.2
20/03:30pm 13.7 7.6 2.6 47 4.9 NE 24 35 13 19 1014.5 1014.5 0.0
20/03:00pm 13.7 6.8 2.6 47 4.9 NE 28 39 15 21 1014.8 1014.8 0.0
20/02:30pm 13.4 6.1 2.3 47 4.8 NE 30 39 16 21 1015.4 1015.4 0.0
20/02:00pm 13.1 5.3 1.5 45 5.0 NNE 32 39 17 21 1017.4 1017.5 0.0
20/01:30pm 13.3 4.1 1.3 44 5.1 NNE 39 50 21 27 1016.8 1016.9 0.0
20/01:20pm 13.8 5.2 2.4 46 5.0 NE 37 56 20 30 1016.9 1017.0 0.0
20/01:00pm 14.1 5.1 2.4 45 5.2 NE 39 54 21 29 1017.7 1017.8 0.0
20/12:35pm 13.1 4.7 1.5 45 5.0 NNE 35 54 19 29 1018.6 1018.7 0.0
20/12:30pm 13.3 5.1 2.5 48 4.7 NNE 35 48 19 26 1018.9 1019.0 0.0
20/12:22pm 13.3 5.5 1.9 46 4.9 NNE 32 50 17 27 1019.3 1019.4 0.0
20/12:00pm 13.4 4.2 1.4 44 5.1 NNE 39 52 21 28 1020.2 1020.3 0.0
20/11:47am 13.7 5.3 1.4 43 5.3 NNE 35 56 19 30 1020.8 1020.9 0.0
20/11:30am 14.3 5.5 1.6 42 5.5 NNE 37 52 20 28 1021.1 1021.2 0.0
20/11:00am 13.8 6.1 2.1 45 5.1 NNE 32 43 17 23 1021.8 1021.8 0.0
20/10:30am 13.0 3.9 2.0 47 4.7 NNE 39 54 21 29 1021.9 1021.9 0.0
20/10:00am 12.8 3.6 1.5 46 4.8 NNE 39 52 21 28 1022.4 1022.4 0.0
20/09:30am 12.4 4.3 1.1 46 4.7 NNE 33 46 18 25 1023.0 1023.0 0.0
20/09:00am 12.2 5.2 1.8 49 4.4 NE 28 39 15 21 1023.5 1023.5 0.0
20/08:30am 10.7 4.0 1.3 52 3.9 NE 26 35 14 19 1023.4 1023.4 0.0
20/08:00am 9.8 2.7 1.2 55 3.5 NE 28 37 15 20 1023.6 1023.6 0.0
20/07:30am 9.7 3.3 1.1 55 3.5 NE 24 32 13 17 1023.8 1023.8 0.0
20/07:00am 9.4 2.7 1.3 57 3.3 NE 26 35 14 19 1023.8 1023.8 0.0
20/06:30am 8.6 2.6 1.3 60 3.0 NE 22 28 12 15 1023.9 1023.9 0.0
20/06:00am 8.4 2.4 1.3 61 2.9 NE 22 26 12 14 1023.9 1023.9 0.0
20/05:30am 8.0 2.4 1.4 63 2.7 ENE 20 26 11 14 1024.0 1024.0 0.0
20/05:00am 8.3 2.4 1.5 62 2.8 NE 22 30 12 16 1024.2 1024.2 0.0
20/04:30am 7.9 2.5 1.5 64 2.6 ENE 19 26 10 14 1024.6 1024.6 0.0
20/04:00am 7.2 2.6 1.7 68 2.2 NE 15 20 8 11 1024.7 1024.7 0.0
20/03:30am 8.1 2.8 2.1 66 2.5 ENE 19 24 10 13 1024.8 1024.8 0.0
20/03:00am 7.9 2.7 2.4 68 2.3 NE 19 22 10 12 1024.8 1024.8 0.0
20/02:30am 8.1 3.0 3.0 70 2.1 NE 19 22 10 12 1025.0 1025.0 0.0
20/02:00am 8.1 3.4 3.0 70 2.2 ENE 17 20 9 11 1025.4 1025.4 0.0
20/01:30am 8.8 3.6 3.4 69 2.3 ENE 20 26 11 14 1025.6 1025.6 0.0
20/01:00am 8.8 3.6 3.6 70 2.2 E 20 26 11 14 1025.8 1025.8 0.0
20/12:30am 8.3 4.1 3.8 73 1.9 E 15 22 8 12 1026.1 1026.1 0.0
20/12:00am 8.4 3.8 3.8 73 2.0 E 17 20 9 11 1026.4 1026.4 0.0
 
Date/Time
CST
Temp
°C
App
Temp
°C
Dew
Point
°C
Rel
Hum
%
Delta-T
°C
Wind Press
QNH
hPa
Press
MSL
hPa
Rain since
9am
mm
Dir  Spd
km/h
Gust
km/h
Spd
kts
Gust
kts
19/11:30pm 7.9 4.5 3.8 75 1.8 E 11 17 6 9 1026.8 1026.8 0.0
19/11:00pm 7.6 4.2 3.8 77 1.6 E 11 17 6 9 1027.0 1027.0 0.0
19/10:30pm 7.1 4.5 3.2 76 1.6 E 6 11 3 6 1027.2 1027.2 0.0
19/10:00pm 7.9 4.8 3.8 75 1.8 ENE 9 13 5 7 1027.2 1027.2 0.0
19/09:30pm 8.0 5.8 3.1 71 2.1 ESE 4 7 2 4 1027.4 1027.4 0.0
19/09:00pm 8.8 6.4 4.2 73 2.0 NE 6 9 3 5 1027.6 1027.6 0.0
19/08:30pm 8.3 5.3 4.1 75 1.8 E 9 11 5 6 1027.6 1027.6 0.0
19/08:00pm 9.3 7.1 6.2 81 1.4 E 7 7 4 4 1027.9 1027.9 0.0
19/07:30pm 9.2 6.6 5.9 80 1.5 SE 9 9 5 5 1027.7 1027.7 0.0
19/07:00pm 10.3 7.7 6.1 75 1.9 S 9 11 5 6 1027.9 1027.9 0.0
19/06:30pm 11.0 8.5 6.4 73 2.1 SSW 9 13 5 7 1028.0 1028.0 0.0
19/06:00pm 11.7 8.7 6.0 68 2.6 SW 11 15 6 8 1027.9 1027.9 0.0
19/05:30pm 12.6 8.8 5.8 63 3.2 WSW 15 19 8 10 1027.8 1027.8 0.0
19/05:00pm 13.3 9.2 6.4 63 3.3 WSW 17 20 9 11 1027.5 1027.5 0.0
19/04:30pm 13.6 9.3 6.9 64 3.2 WSW 19 24 10 13 1027.4 1027.4 0.0
19/04:00pm 14.2 9.8 6.6 60 3.7 WSW 19 24 10 13 1027.2 1027.2 0.0
19/03:30pm 14.5 10.4 6.1 57 4.0 W 17 20 9 11 1027.0 1027.0 0.0
19/03:00pm 14.1 9.4 5.2 55 4.1 W 19 24 10 13 1027.2 1027.2 0.0
19/02:30pm 14.5 9.7 4.8 52 4.5 WSW 19 24 10 13 1027.5 1027.5 0.0
19/02:00pm 13.6 9.4 5.5 58 3.8 W 17 24 9 13 1027.8 1027.8 0.0
19/01:30pm 15.1 12.0 5.6 53 4.5 WSW 11 19 6 10 1028.0 1028.0 0.0
19/01:00pm 14.8 11.6 5.1 52 4.6 W 11 19 6 10 1028.4 1028.4 0.0
19/12:30pm 14.1 11.4 3.6 49 4.7 SSW 7 11 4 6 1028.9 1028.9 0.0
19/12:00pm 14.3 10.1 5.7 56 4.0 W 17 24 9 13 1029.4 1029.4 0.0
19/11:30am 13.4 10.7 5.8 60 3.6 WNW 9 13 5 7 1029.8 1029.8 0.0
19/11:00am 13.0 10.3 5.7 61 3.4 W 9 15 5 8 1030.2 1030.2 0.0
19/10:30am 12.9 10.6 5.6 61 3.4 SSW 7 13 4 7 1030.3 1030.3 0.0
19/10:00am 12.0 10.8 6.3 68 2.7 SW 2 9 1 5 1030.4 1030.4 0.0
19/09:30am 11.1 9.4 6.0 71 2.4 NNE 4 7 2 4 1030.5 1030.5 0.0
19/09:00am 10.0 9.4 7.3 83 1.3 CALM 0 6 0 3 1030.4 1030.4 0.4
19/08:30am 8.2 7.6 7.6 96 0.3 CALM 0 0 0 0 1030.2 1030.2 0.4
19/08:00am 6.3 5.5 6.3 100 0.0 CALM 0 0 0 0 1030.0 1030.0 0.4
19/07:30am 3.8 2.4 3.8 100 0.0 CALM 0 0 0 0 1029.6 1029.6 0.4
19/07:00am 3.1 0.5 3.1 100 0.0 NE 6 7 3 4 1029.0 1029.0 0.4
19/06:30am 3.9 1.4 3.9 100 0.0 NE 6 7 3 4 1028.7 1028.7 0.4
19/06:00am 3.6 1.1 3.6 100 0.0 NE 6 7 3 4 1028.4 1028.4 0.4
19/05:30am 2.5 0.5 2.5 100 0.0 ENE 2 7 1 4 1028.2 1028.2 0.4
19/05:00am 3.6 1.1 3.6 100 0.0 NE 6 7 3 4 1027.8 1027.8 0.4
19/04:30am 2.8 0.5 2.8 100 0.0 NE 4 6 2 3 1027.4 1027.4 0.4
19/04:00am 3.1 -0.1 3.1 100 0.0 NE 9 9 5 5 1027.2 1027.2 0.4
19/03:30am 2.9 1.0 2.9 100 0.0 NE 2 9 1 5 1027.2 1027.2 0.4
19/03:00am 3.6 2.2 3.6 100 0.0 CALM 0 0 0 0 1027.1 1027.1 0.4
19/02:30am 3.7 2.3 3.7 100 0.0 CALM 0 0 0 0 1027.2 1027.2 0.4
19/02:00am 4.6 3.4 4.6 100 0.0 CALM 0 0 0 0 1027.3 1027.3 0.4
19/01:30am 5.4 4.4 5.4 100 0.0 CALM 0 0 0 0 1027.2 1027.2 0.4

Other Formats:

Comma delimited format used in spreadsheet applications
http://www.bom.gov.au/fwo/IDS60801/IDS60801.95677.axf

JavaScript Object Notation format (JSON) in row-major order
http://www.bom.gov.au/fwo/IDS60801/IDS60801.95677.json